Air Navigation Services of Czech Republic
Airport: LKNA Updated:  18.07.2018 18:01:07  UTC
 METAR LKNA 18.07. 18:00 ...
METAR LKNA 181800Z 33011KT CAVOK 22/12 Q1014 NOSIG RMK BLU BLU=
 TAF LKNA 18.07. 17:00 ...
TAF LKNA 181700Z 1818/1918 32016KT 9999 SCT040      TEMPO 1910/1918 32016G26KT=